createdAt,value
2018-07-25T00:02:28.444Z,19.80
2018-07-25T00:05:00.548Z,19.80
2018-07-25T00:07:32.633Z,19.80
2018-07-25T00:10:03.827Z,19.80
2018-07-25T00:12:35.235Z,19.80
2018-07-25T00:15:07.296Z,19.70
2018-07-25T00:17:38.296Z,19.60
2018-07-25T00:20:09.485Z,19.70
2018-07-25T00:22:41.949Z,19.70
2018-07-25T00:25:13.408Z,19.70
2018-07-25T00:27:43.819Z,19.70
2018-07-25T00:30:15.958Z,19.80
2018-07-25T00:32:47.555Z,19.70
2018-07-25T00:35:17.931Z,19.70
2018-07-25T00:37:49.358Z,19.60
2018-07-25T00:40:19.569Z,19.60
2018-07-25T00:42:51.029Z,19.60
2018-07-25T00:45:23.048Z,19.60
2018-07-25T00:47:54.380Z,19.50
2018-07-25T00:50:25.521Z,19.40
2018-07-25T00:52:56.740Z,19.50
2018-07-25T00:55:28.644Z,19.50
2018-07-25T00:57:59.751Z,19.60
2018-07-25T01:00:31.031Z,19.60
2018-07-25T01:03:03.071Z,19.60
2018-07-25T01:05:33.470Z,19.60
2018-07-25T01:08:05.705Z,19.60
2018-07-25T01:10:41.368Z,19.50
2018-07-25T01:13:13.675Z,19.50
2018-07-25T01:15:44.236Z,19.50
2018-07-25T01:18:15.776Z,19.40
2018-07-25T01:20:47.287Z,19.40
2018-07-25T01:23:18.736Z,19.40
2018-07-25T01:25:57.982Z,19.50
2018-07-25T01:28:29.063Z,19.40
2018-07-25T01:31:00.023Z,19.40
2018-07-25T01:33:31.864Z,19.30
2018-07-25T01:36:03.664Z,19.40
2018-07-25T01:38:35.393Z,19.40
2018-07-25T01:41:10.353Z,19.40
2018-07-25T01:43:50.311Z,19.40
2018-07-25T01:46:24.413Z,19.30
2018-07-25T01:48:54.972Z,19.30
2018-07-25T01:51:25.513Z,19.40
2018-07-25T01:53:57.084Z,19.30
2018-07-25T01:56:32.033Z,19.30
2018-07-25T01:59:03.893Z,19.20
2018-07-25T02:01:34.833Z,19.20
2018-07-25T02:04:06.972Z,19.10
2018-07-25T02:06:38.723Z,19.00
2018-07-25T02:09:12.903Z,18.90
2018-07-25T02:11:52.294Z,18.90
2018-07-25T02:14:32.546Z,18.80
2018-07-25T02:17:04.628Z,18.80
2018-07-25T02:19:36.664Z,18.90
2018-07-25T02:22:08.769Z,18.90
2018-07-25T02:24:41.824Z,19.00
2018-07-25T02:27:18.072Z,19.00
2018-07-25T02:29:58.249Z,19.00
2018-07-25T02:32:38.202Z,19.00
2018-07-25T02:35:09.798Z,19.00
2018-07-25T02:37:41.679Z,19.00
2018-07-25T02:40:13.719Z,19.00
2018-07-25T02:42:46.109Z,18.90
2018-07-25T02:45:31.413Z,18.90
2018-07-25T02:48:11.531Z,18.80
2018-07-25T02:50:51.553Z,18.80
2018-07-25T02:53:23.514Z,18.80
2018-07-25T02:55:55.763Z,18.80
2018-07-25T02:58:27.395Z,18.80
2018-07-25T03:00:59.663Z,18.80
2018-07-25T03:03:36.802Z,18.80
2018-07-25T03:06:17.126Z,18.70
2018-07-25T03:08:48.567Z,18.70
2018-07-25T03:11:28.664Z,18.70
2018-07-25T03:14:01.044Z,18.70
2018-07-25T03:16:33.209Z,18.70
2018-07-25T03:19:14.432Z,18.80
2018-07-25T03:21:47.191Z,18.80
2018-07-25T03:24:27.644Z,18.80
2018-07-25T03:27:07.975Z,18.70
2018-07-25T03:29:39.714Z,18.60
2018-07-25T03:32:11.865Z,18.60
2018-07-25T03:34:44.074Z,18.60
2018-07-25T03:37:24.199Z,18.60
2018-07-25T03:40:03.193Z,18.70
2018-07-25T03:45:04.900Z,18.60
2018-07-25T03:47:36.590Z,18.50
2018-07-25T03:50:16.731Z,18.40
2018-07-25T03:52:56.057Z,18.40
2018-07-25T03:55:27.897Z,18.30
2018-07-25T03:58:05.552Z,18.30
2018-07-25T04:00:36.412Z,18.30
2018-07-25T04:03:09.262Z,18.40
2018-07-25T04:05:49.452Z,18.30
2018-07-25T04:08:20.996Z,18.30
2018-07-25T04:10:53.262Z,18.30
2018-07-25T04:13:33.679Z,18.40
2018-07-25T04:16:13.523Z,18.40
2018-07-25T04:18:46.726Z,18.40
2018-07-25T04:21:26.656Z,18.50
2018-07-25T04:23:59.615Z,18.50
2018-07-25T04:26:32.156Z,18.60
2018-07-25T04:29:05.152Z,18.60
2018-07-25T04:31:35.825Z,18.60
2018-07-25T04:34:07.504Z,18.60
2018-07-25T04:36:44.734Z,18.60
2018-07-25T04:39:19.964Z,18.60
2018-07-25T04:42:00.054Z,18.60
2018-07-25T04:44:39.904Z,18.50
2018-07-25T04:47:12.005Z,18.50
2018-07-25T04:49:51.563Z,18.60
2018-07-25T04:52:29.015Z,18.70
2018-07-25T04:55:00.214Z,18.70
2018-07-25T04:57:40.364Z,18.80
2018-07-25T05:00:11.124Z,18.90
2018-07-25T05:02:43.386Z,19.10
2018-07-25T05:05:20.607Z,19.30
2018-07-25T05:07:52.166Z,19.30
2018-07-25T05:10:31.800Z,19.40
2018-07-25T05:13:11.614Z,19.50
2018-07-25T05:15:43.895Z,19.50
2018-07-25T05:18:24.164Z,19.50
2018-07-25T05:23:27.147Z,19.50
2018-07-25T05:25:58.688Z,19.80
2018-07-25T05:28:38.956Z,20.10
2018-07-25T05:31:13.822Z,20.50
2018-07-25T05:33:53.575Z,20.60
2018-07-25T05:36:25.856Z,20.70
2018-07-25T05:39:07.634Z,20.70
2018-07-25T05:41:47.840Z,20.70
2018-07-25T05:44:19.967Z,20.70
2018-07-25T05:46:59.684Z,21.10
2018-07-25T05:49:37.274Z,21.30
2018-07-25T05:52:16.535Z,21.50
2018-07-25T05:54:56.531Z,21.60
2018-07-25T05:57:28.461Z,21.70
2018-07-25T06:02:38.496Z,21.80
2018-07-25T06:05:10.535Z,22.00
2018-07-25T06:07:41.955Z,22.10
2018-07-25T06:12:44.025Z,22.20
2018-07-25T06:15:15.495Z,22.30
2018-07-25T06:17:46.954Z,22.80
2018-07-25T06:20:18.175Z,23.60
2018-07-25T06:22:50.016Z,24.40
2018-07-25T06:25:21.424Z,24.90
2018-07-25T06:27:52.933Z,25.30
2018-07-25T06:30:24.744Z,25.60
2018-07-25T06:32:55.635Z,25.80
2018-07-25T06:35:27.075Z,26.20
2018-07-25T06:37:58.310Z,26.50
2018-07-25T06:40:37.685Z,26.70
2018-07-25T06:45:49.143Z,25.90
2018-07-25T06:48:21.513Z,25.30
2018-07-25T06:50:51.979Z,24.90
2018-07-25T06:53:24.163Z,24.50
2018-07-25T06:55:55.633Z,24.30
2018-07-25T06:58:27.002Z,24.20
2018-07-25T07:00:57.112Z,24.00
2018-07-25T07:03:29.202Z,23.90
2018-07-25T07:06:00.590Z,23.90
2018-07-25T07:08:34.192Z,24.00
2018-07-25T07:11:06.070Z,24.10
2018-07-25T07:13:45.190Z,24.20
2018-07-25T07:16:24.272Z,24.30
2018-07-25T07:19:03.181Z,24.10
2018-07-25T07:21:42.198Z,24.00
2018-07-25T07:24:21.240Z,23.90
2018-07-25T07:27:00.097Z,23.80
2018-07-25T07:29:39.188Z,23.80
2018-07-25T07:32:18.025Z,23.70
2018-07-25T07:34:58.098Z,23.60
2018-07-25T07:37:37.104Z,23.60
2018-07-25T07:40:16.371Z,23.40
2018-07-25T07:42:55.453Z,23.30
2018-07-25T07:45:34.444Z,23.40
2018-07-25T07:48:10.169Z,23.30
2018-07-25T07:50:46.510Z,23.30
2018-07-25T07:53:18.198Z,23.40
2018-07-25T07:55:51.649Z,23.40
2018-07-25T07:58:42.646Z,23.40
2018-07-25T08:01:22.148Z,23.40
2018-07-25T08:04:01.455Z,23.60
2018-07-25T08:06:40.837Z,23.70
2018-07-25T08:09:20.049Z,23.90
2018-07-25T08:11:58.936Z,23.90
2018-07-25T08:14:37.996Z,23.80
2018-07-25T08:17:17.019Z,23.80
2018-07-25T08:19:56.227Z,23.80
2018-07-25T08:22:35.092Z,23.80
2018-07-25T08:25:14.136Z,23.80
2018-07-25T08:27:53.730Z,23.70
2018-07-25T08:30:30.245Z,23.70
2018-07-25T08:33:12.998Z,23.80
2018-07-25T08:35:52.944Z,23.90
2018-07-25T08:38:38.537Z,24.10
2018-07-25T08:41:18.064Z,24.10
2018-07-25T08:43:57.356Z,24.20
2018-07-25T08:46:36.694Z,24.20
2018-07-25T08:49:16.434Z,24.30
2018-07-25T08:51:55.641Z,24.40
2018-07-25T08:54:34.840Z,24.40
2018-07-25T08:57:14.083Z,24.50
2018-07-25T08:59:53.349Z,24.60
2018-07-25T09:02:32.380Z,24.60
2018-07-25T09:05:11.458Z,24.70
2018-07-25T09:07:48.215Z,24.70
2018-07-25T09:10:27.379Z,24.80
2018-07-25T09:13:07.067Z,24.80
2018-07-25T09:15:46.354Z,24.90
2018-07-25T09:18:25.635Z,24.80
2018-07-25T09:21:04.691Z,24.80
2018-07-25T09:23:45.081Z,24.80
2018-07-25T09:26:24.321Z,24.80
2018-07-25T09:29:03.464Z,24.80
2018-07-25T09:31:39.836Z,24.90
2018-07-25T09:34:17.099Z,25.10
2018-07-25T09:36:54.160Z,25.40
2018-07-25T09:39:33.453Z,25.60
2018-07-25T09:42:12.701Z,25.70
2018-07-25T09:44:51.858Z,25.70
2018-07-25T09:47:28.422Z,25.70
2018-07-25T09:50:08.511Z,25.80
2018-07-25T09:52:48.059Z,26.00
2018-07-25T09:55:27.247Z,26.10
2018-07-25T09:58:06.542Z,26.20
2018-07-25T10:00:50.199Z,26.30
2018-07-25T10:03:30.763Z,26.30
2018-07-25T10:06:10.290Z,26.20
2018-07-25T10:08:54.295Z,26.40
2018-07-25T10:11:33.445Z,26.60
2018-07-25T10:14:12.508Z,26.80
2018-07-25T10:16:51.449Z,27.20
2018-07-25T10:19:30.393Z,27.70
2018-07-25T10:22:09.500Z,27.90
2018-07-25T10:24:49.520Z,28.20
2018-07-25T10:30:07.280Z,28.60
2018-07-25T10:32:46.405Z,28.70
2018-07-25T10:35:25.966Z,28.80
2018-07-25T10:38:01.284Z,28.70
2018-07-25T10:40:37.212Z,28.60
2018-07-25T10:43:16.156Z,28.50
2018-07-25T10:45:55.218Z,28.40
2018-07-25T10:48:34.589Z,28.40
2018-07-25T10:51:14.407Z,28.60
2018-07-25T10:53:54.469Z,28.70
2018-07-25T10:56:33.889Z,28.90
2018-07-25T10:59:12.968Z,29.10
2018-07-25T11:01:52.299Z,29.30
2018-07-25T11:04:31.550Z,29.20
2018-07-25T11:07:04.669Z,29.10
2018-07-25T11:09:40.979Z,28.90
2018-07-25T11:12:19.825Z,29.00
2018-07-25T11:14:58.849Z,29.00
2018-07-25T11:17:37.985Z,29.00
2018-07-25T11:20:17.355Z,29.10
2018-07-25T11:22:56.733Z,29.20
2018-07-25T11:25:36.059Z,29.40
2018-07-25T11:28:15.132Z,29.60
2018-07-25T11:30:55.317Z,29.60
2018-07-25T11:33:34.787Z,29.70
2018-07-25T11:36:14.377Z,29.80
2018-07-25T11:38:53.463Z,29.80
2018-07-25T11:41:32.665Z,29.80
2018-07-25T11:44:14.044Z,29.80
2018-07-25T11:46:53.565Z,29.80
2018-07-25T11:49:32.848Z,29.70
2018-07-25T11:52:11.997Z,29.60
2018-07-25T11:54:51.686Z,29.60
2018-07-25T11:57:31.191Z,29.60
2018-07-25T12:00:10.556Z,29.60
2018-07-25T12:02:49.752Z,29.70
2018-07-25T12:05:24.491Z,29.70
2018-07-25T12:08:03.426Z,29.80
2018-07-25T12:10:36.266Z,29.80
2018-07-25T12:13:15.586Z,29.80
2018-07-25T12:15:54.582Z,29.90
2018-07-25T12:18:33.790Z,30.00
2018-07-25T12:21:12.870Z,30.00
2018-07-25T12:23:52.652Z,30.00
2018-07-25T12:26:32.150Z,30.00
2018-07-25T12:29:09.112Z,30.00
2018-07-25T12:31:48.098Z,30.00
2018-07-25T12:34:27.329Z,30.00
2018-07-25T12:37:06.466Z,30.00
2018-07-25T12:39:46.114Z,29.90
2018-07-25T12:42:25.254Z,29.70
2018-07-25T12:45:07.154Z,29.60
2018-07-25T12:47:47.805Z,29.60
2018-07-25T12:50:27.001Z,29.60
2018-07-25T12:53:06.374Z,29.70
2018-07-25T12:55:41.965Z,29.80
2018-07-25T12:58:21.052Z,29.80
2018-07-25T13:01:00.173Z,29.80
2018-07-25T13:03:39.355Z,29.80
2018-07-25T13:06:16.364Z,29.90
2018-07-25T13:08:48.315Z,29.80
2018-07-25T13:11:27.478Z,29.80
2018-07-25T13:14:06.767Z,29.80
2018-07-25T13:16:38.949Z,29.90
2018-07-25T13:19:18.222Z,29.90
2018-07-25T13:21:57.962Z,29.80
2018-07-25T13:24:37.458Z,29.90
2018-07-25T13:27:13.802Z,29.80
2018-07-25T13:29:48.564Z,29.80
2018-07-25T13:32:26.386Z,29.80
2018-07-25T13:35:05.596Z,29.80
2018-07-25T13:38:47.687Z,29.80
2018-07-25T13:41:27.496Z,29.80
2018-07-25T13:44:07.106Z,29.80
2018-07-25T13:46:46.898Z,29.80
2018-07-25T13:49:26.518Z,29.80
2018-07-25T13:52:05.768Z,29.80
2018-07-25T13:54:45.155Z,29.90
2018-07-25T13:57:24.871Z,29.90
2018-07-25T14:00:04.924Z,29.80
2018-07-25T14:02:44.095Z,29.50
2018-07-25T14:05:23.292Z,29.40
2018-07-25T14:07:55.142Z,29.20
2018-07-25T14:10:25.983Z,29.10
2018-07-25T14:12:58.791Z,29.00
2018-07-25T14:15:29.022Z,28.90
2018-07-25T14:17:59.402Z,28.90
2018-07-25T14:23:22.603Z,29.00
2018-07-25T14:25:53.522Z,29.00
2018-07-25T14:28:24.912Z,29.10
2018-07-25T14:30:54.952Z,29.10
2018-07-25T14:33:34.913Z,28.90
2018-07-25T14:36:05.401Z,28.80
2018-07-25T14:38:36.481Z,28.60
2018-07-25T14:44:10.512Z,28.30
2018-07-25T14:46:41.115Z,28.10
2018-07-25T14:49:11.842Z,27.90
2018-07-25T14:51:42.486Z,27.70
2018-07-25T14:54:54.652Z,27.40
2018-07-25T14:57:26.063Z,27.10
2018-07-25T14:59:57.222Z,26.40
2018-07-25T15:02:27.660Z,25.90
2018-07-25T15:04:59.343Z,25.50
2018-07-25T15:07:29.853Z,25.20
2018-07-25T15:10:01.352Z,24.90
2018-07-25T15:12:36.673Z,24.70
2018-07-25T15:15:09.872Z,24.50
2018-07-25T15:17:40.913Z,24.40
2018-07-25T15:20:11.702Z,24.30
2018-07-25T15:26:06.762Z,24.10
2018-07-25T15:28:37.382Z,24.00
2018-07-25T15:31:09.362Z,24.00
2018-07-25T15:34:13.544Z,24.00
2018-07-25T15:36:51.743Z,24.00
2018-07-25T15:39:25.215Z,24.00
2018-07-25T15:41:58.452Z,24.10
2018-07-25T15:45:08.192Z,24.00
2018-07-25T15:47:38.233Z,24.00
2018-07-25T15:50:10.012Z,24.00
2018-07-25T15:53:13.192Z,23.90
2018-07-25T15:55:44.946Z,23.80
2018-07-25T15:58:25.121Z,23.80
2018-07-25T16:01:00.818Z,23.70
2018-07-25T16:03:31.209Z,23.70
2018-07-25T16:06:02.597Z,23.60
2018-07-25T16:08:35.457Z,23.60
2018-07-25T16:11:07.351Z,23.60
2018-07-25T16:13:40.211Z,23.60
2018-07-25T16:16:12.727Z,23.60
2018-07-25T16:18:44.228Z,23.60
2018-07-25T16:21:19.018Z,23.60
2018-07-25T16:23:50.290Z,23.70
2018-07-25T16:26:22.418Z,24.00
2018-07-25T16:28:53.930Z,24.20
2018-07-25T16:31:26.392Z,24.50
2018-07-25T16:33:59.029Z,24.70
2018-07-25T16:36:40.040Z,24.80
2018-07-25T16:39:15.129Z,24.80
2018-07-25T16:41:46.850Z,24.90
2018-07-25T16:44:19.440Z,24.90
2018-07-25T16:46:49.829Z,24.80
2018-07-25T16:49:20.680Z,24.70
2018-07-25T16:51:51.420Z,24.70
2018-07-25T16:54:27.706Z,24.80
2018-07-25T16:56:58.189Z,24.80
2018-07-25T16:59:28.559Z,24.80
2018-07-25T17:01:58.698Z,24.80
2018-07-25T17:04:31.199Z,24.80
2018-07-25T17:07:01.430Z,24.70
2018-07-25T17:09:32.070Z,24.70
2018-07-25T17:12:03.050Z,24.60
2018-07-25T17:14:37.656Z,24.60
2018-07-25T17:17:09.079Z,24.50
2018-07-25T17:19:39.914Z,24.50
2018-07-25T17:22:10.619Z,24.60
2018-07-25T17:24:42.899Z,24.60
2018-07-25T17:27:14.588Z,24.70
2018-07-25T17:29:46.030Z,24.60
2018-07-25T17:32:17.449Z,24.60
2018-07-25T17:34:54.119Z,24.50
2018-07-25T17:37:26.052Z,24.60
2018-07-25T17:39:57.300Z,24.50
2018-07-25T17:42:37.528Z,24.50
2018-07-25T17:45:11.269Z,24.50
2018-07-25T17:47:44.089Z,24.40
2018-07-25T17:50:23.508Z,24.40
2018-07-25T17:52:55.230Z,24.30
2018-07-25T17:55:27.579Z,24.20
2018-07-25T17:57:58.338Z,24.20
2018-07-25T18:00:29.228Z,24.10
2018-07-25T18:03:00.858Z,24.00
2018-07-25T18:05:31.539Z,24.00
2018-07-25T18:08:01.830Z,23.90
2018-07-25T18:10:36.759Z,23.80
2018-07-25T18:13:12.058Z,23.80
2018-07-25T18:15:42.294Z,23.70
2018-07-25T18:18:12.578Z,23.70
2018-07-25T18:20:43.232Z,23.60
2018-07-25T18:23:18.399Z,23.60
2018-07-25T18:25:48.748Z,23.60
2018-07-25T18:28:20.058Z,23.50
2018-07-25T18:30:50.538Z,23.50
2018-07-25T18:33:25.219Z,23.40
2018-07-25T18:35:57.278Z,23.40
2018-07-25T18:38:28.458Z,23.40
2018-07-25T18:41:01.340Z,23.30
2018-07-25T18:43:34.320Z,23.30
2018-07-25T18:46:05.602Z,23.30
2018-07-25T18:48:38.200Z,23.30
2018-07-25T18:51:08.999Z,23.30
2018-07-25T18:53:42.828Z,23.30
2018-07-25T18:56:14.403Z,23.30
2018-07-25T18:58:45.449Z,23.20
2018-07-25T19:01:16.520Z,23.20
2018-07-25T19:04:01.290Z,23.10
2018-07-25T19:06:32.291Z,23.00
2018-07-25T19:09:02.959Z,22.90
2018-07-25T19:14:14.978Z,22.90
2018-07-25T19:16:46.409Z,22.80
2018-07-25T19:19:17.620Z,22.80
2018-07-25T19:21:48.829Z,22.70
2018-07-25T19:24:20.843Z,22.60
2018-07-25T19:26:52.347Z,22.50
2018-07-25T19:29:23.619Z,22.60
2018-07-25T19:31:55.189Z,22.60
2018-07-25T19:34:34.418Z,22.60
2018-07-25T19:37:04.918Z,22.50
2018-07-25T19:42:11.599Z,22.50
2018-07-25T19:44:43.278Z,22.40
2018-07-25T19:49:45.708Z,22.30
2018-07-25T19:52:16.768Z,22.40
2018-07-25T19:54:47.329Z,22.30
2018-07-25T19:57:17.823Z,22.20
2018-07-25T19:59:49.149Z,22.20
2018-07-25T20:02:20.119Z,22.20
2018-07-25T20:04:53.479Z,22.20
2018-07-25T20:07:25.669Z,22.10
2018-07-25T20:09:56.498Z,22.20
2018-07-25T20:12:29.099Z,22.10
2018-07-25T20:15:07.038Z,22.10
2018-07-25T20:17:38.633Z,22.00
2018-07-25T20:20:18.640Z,22.10
2018-07-25T20:23:01.818Z,22.10
2018-07-25T20:25:32.853Z,22.00
2018-07-25T20:28:03.569Z,22.00
2018-07-25T20:30:35.698Z,22.00
2018-07-25T20:33:07.378Z,21.90
2018-07-25T20:35:39.419Z,21.90
2018-07-25T20:38:12.148Z,21.90
2018-07-25T20:40:43.510Z,21.90
2018-07-25T20:43:22.489Z,22.00
2018-07-25T20:45:54.101Z,22.00
2018-07-25T20:48:31.118Z,21.90
2018-07-25T20:51:02.830Z,21.90
2018-07-25T20:53:41.039Z,21.90
2018-07-25T20:56:12.599Z,21.90
2018-07-25T20:58:44.562Z,21.90
2018-07-25T21:03:48.809Z,21.80
2018-07-25T21:06:20.770Z,21.80
2018-07-25T21:08:52.348Z,21.80
2018-07-25T21:11:24.219Z,21.70
2018-07-25T21:14:04.538Z,21.80
2018-07-25T21:17:47.736Z,21.80
2018-07-25T21:20:18.731Z,21.70
2018-07-25T21:22:51.654Z,21.70
2018-07-25T21:25:31.972Z,21.70
2018-07-25T21:28:19.594Z,21.70
2018-07-25T21:30:50.254Z,21.60
2018-07-25T21:33:22.008Z,21.70
2018-07-25T21:36:00.502Z,21.70
2018-07-25T21:38:32.190Z,21.70
2018-07-25T21:41:02.305Z,21.70
2018-07-25T21:43:41.540Z,21.80
2018-07-25T21:46:13.043Z,21.80
2018-07-25T21:48:52.515Z,21.90
2018-07-25T21:54:09.619Z,21.90
2018-07-25T21:56:49.646Z,22.00
2018-07-25T21:59:21.416Z,22.00
2018-07-25T22:01:53.727Z,22.10
2018-07-25T22:04:25.525Z,22.10
2018-07-25T22:06:57.145Z,22.10
2018-07-25T22:09:30.890Z,22.10
2018-07-25T22:12:02.247Z,22.00
2018-07-25T22:14:35.226Z,22.00
2018-07-25T22:17:06.742Z,21.90
2018-07-25T22:19:38.746Z,21.70
2018-07-25T22:22:09.982Z,21.60
2018-07-25T22:27:14.035Z,21.40
2018-07-25T22:29:44.935Z,21.20
2018-07-25T22:32:17.316Z,21.20
2018-07-25T22:34:49.155Z,21.10
2018-07-25T22:37:20.595Z,21.00
2018-07-25T22:40:00.687Z,20.80
2018-07-25T22:42:37.149Z,20.80
2018-07-25T22:45:16.089Z,20.90
2018-07-25T22:47:55.240Z,20.90
2018-07-25T22:50:35.597Z,20.90
2018-07-25T22:53:15.750Z,21.00
2018-07-25T22:55:48.361Z,21.00
2018-07-25T22:58:28.767Z,20.90
2018-07-25T23:01:08.910Z,20.80
2018-07-25T23:03:42.054Z,20.80
2018-07-25T23:06:22.360Z,20.70
2018-07-25T23:09:02.347Z,20.70
2018-07-25T23:11:42.653Z,20.70
2018-07-25T23:14:13.944Z,20.70
2018-07-25T23:16:45.683Z,20.60
2018-07-25T23:19:18.215Z,20.60
2018-07-25T23:21:58.254Z,20.50
2018-07-25T23:24:31.954Z,20.40
2018-07-25T23:27:12.057Z,20.50
2018-07-25T23:29:46.218Z,20.50
2018-07-25T23:32:25.966Z,20.40
2018-07-25T23:35:06.411Z,20.30
2018-07-25T23:37:46.240Z,20.30
2018-07-25T23:40:26.969Z,20.30
2018-07-25T23:43:03.353Z,20.40
2018-07-25T23:45:43.507Z,20.40
2018-07-25T23:48:16.169Z,20.40
2018-07-25T23:50:56.255Z,20.50
2018-07-25T23:53:28.915Z,20.50
2018-07-25T23:56:09.259Z,20.50
2018-07-25T23:58:48.820Z,20.40
